createdAt,value
2017-07-03T00:00:22.615Z,3.2
2017-07-03T00:01:10.113Z,3.16
2017-07-03T00:03:09.672Z,3.15
2017-07-03T00:04:09.564Z,3.17
2017-07-03T00:05:23.860Z,3.2
2017-07-03T00:06:10.256Z,3.26
2017-07-03T00:07:24.087Z,3.19
2017-07-03T00:08:09.204Z,3.17
2017-07-03T00:10:09.590Z,3.1
2017-07-03T00:11:23.370Z,3.08
2017-07-03T00:12:23.759Z,3.13
2017-07-03T00:13:09.737Z,3.2
2017-07-03T00:14:24.135Z,3.1
2017-07-03T00:15:10.109Z,3.07
2017-07-03T00:16:08.697Z,3.13
2017-07-03T00:17:09.690Z,3.13
2017-07-03T00:19:16.993Z,3.15
2017-07-03T00:20:32.810Z,3.1
2017-07-03T00:21:17.375Z,3.1
2017-07-03T00:24:18.951Z,2.97
2017-07-03T00:25:17.623Z,3.12
2017-07-03T00:28:17.275Z,2.97
2017-07-03T00:30:31.254Z,3.08
2017-07-03T00:32:31.624Z,3.16
2017-07-03T00:33:17.869Z,3.23
2017-07-03T00:36:18.164Z,3.13
2017-07-03T00:38:32.546Z,3.08
2017-07-03T00:41:18.256Z,3.12
2017-07-03T00:42:17.272Z,3.05
2017-07-03T00:45:46.450Z,3.2
2017-07-03T00:46:17.014Z,3.19
2017-07-03T00:47:17.412Z,3.22
2017-07-03T00:48:16.983Z,3.22
2017-07-03T00:49:17.580Z,3.13
2017-07-03T00:50:18.152Z,2.97
2017-07-03T00:51:16.939Z,2.97
2017-07-03T00:52:18.141Z,2.95
2017-07-03T00:53:17.119Z,2.99
2017-07-03T00:54:16.494Z,2.95
2017-07-03T00:55:17.293Z,3.05
2017-07-03T00:56:31.076Z,2.97
2017-07-03T00:57:17.656Z,2.89
2017-07-03T01:00:45.828Z,2.83
2017-07-03T01:02:32.397Z,2.79
2017-07-03T01:03:16.567Z,2.81
2017-07-03T01:04:32.162Z,2.71
2017-07-03T01:05:30.938Z,2.8
2017-07-03T01:06:30.830Z,2.77
2017-07-03T01:07:17.526Z,2.66
2017-07-03T01:09:17.293Z,2.68
2017-07-03T01:10:30.864Z,2.68
2017-07-03T01:11:16.902Z,2.66
2017-07-03T01:12:31.039Z,2.62
2017-07-03T01:14:17.993Z,2.71
2017-07-03T01:15:16.389Z,2.58
2017-07-03T01:16:45.590Z,2.71
2017-07-03T01:18:17.765Z,2.77
2017-07-03T01:20:31.321Z,2.81
2017-07-03T01:23:31.077Z,2.8
2017-07-03T01:24:18.543Z,2.81
2017-07-03T01:25:16.641Z,2.79
2017-07-03T01:26:17.232Z,2.83
2017-07-03T01:27:18.229Z,2.81
2017-07-03T01:28:31.002Z,2.76
2017-07-03T01:29:45.599Z,2.83
2017-07-03T01:30:45.178Z,2.92
2017-07-03T01:31:30.558Z,2.84
2017-07-03T01:32:16.752Z,2.9
2017-07-03T01:33:31.135Z,2.8
2017-07-03T01:36:18.710Z,2.89
2017-07-03T01:38:31.058Z,2.92
2017-07-03T01:39:16.647Z,2.92
2017-07-03T01:40:16.423Z,2.87
2017-07-03T01:41:16.003Z,3.01
2017-07-03T01:42:16.801Z,3.05
2017-07-03T01:43:31.796Z,2.92
2017-07-03T01:44:16.775Z,2.94
2017-07-03T01:45:17.694Z,2.98
2017-07-03T01:46:17.155Z,2.9
2017-07-03T01:47:31.351Z,2.95
2017-07-03T01:48:18.133Z,2.87
2017-07-03T01:49:16.506Z,2.9
2017-07-03T01:50:31.096Z,2.92
2017-07-03T01:51:16.268Z,2.89
2017-07-03T01:52:16.713Z,2.95
2017-07-03T01:54:15.829Z,3.04
2017-07-03T01:55:17.805Z,3.17
2017-07-03T01:56:16.810Z,3.15
2017-07-03T01:58:15.972Z,3.05
2017-07-03T01:59:16.360Z,2.99
2017-07-03T02:00:15.941Z,2.95
2017-07-03T02:01:16.534Z,2.97
2017-07-03T02:02:16.726Z,2.97
2017-07-03T02:03:16.941Z,2.89
2017-07-03T02:04:30.490Z,3.01
2017-07-03T02:05:16.875Z,2.98
2017-07-03T02:08:17.244Z,3.01
2017-07-03T02:10:15.393Z,3.02
2017-07-03T02:11:17.420Z,2.99
2017-07-03T02:13:29.965Z,3.13
2017-07-03T02:14:16.551Z,3.2
2017-07-03T02:15:17.552Z,3.25
2017-07-03T02:16:16.524Z,3.28
2017-07-03T02:17:17.704Z,3.31
2017-07-03T02:18:30.094Z,3.37
2017-07-03T02:19:30.342Z,3.35
2017-07-03T02:20:16.660Z,3.26
2017-07-03T02:21:29.947Z,3.25
2017-07-03T02:23:15.408Z,3.28
2017-07-03T02:26:30.185Z,3.16
2017-07-03T02:28:31.230Z,3.2
2017-07-03T02:29:15.139Z,3.16
2017-07-03T02:30:31.342Z,3.08
2017-07-03T02:32:17.784Z,3.1
2017-07-03T02:33:17.098Z,3.19
2017-07-03T02:34:16.276Z,3.15
2017-07-03T02:35:17.076Z,3.01
2017-07-03T02:36:31.252Z,2.99
2017-07-03T02:37:16.033Z,2.99
2017-07-03T02:38:29.416Z,2.99
2017-07-03T02:40:44.001Z,3.01
2017-07-03T02:41:16.600Z,2.95
2017-07-03T02:42:16.545Z,2.98
2017-07-03T02:45:16.951Z,3.01
2017-07-03T02:46:16.585Z,2.99
2017-07-03T02:47:14.886Z,2.9
2017-07-03T02:48:15.883Z,3.08
2017-07-03T02:51:29.846Z,3.07
2017-07-03T02:52:15.228Z,2.97
2017-07-03T02:53:14.815Z,2.97
2017-07-03T02:55:16.091Z,3.07
2017-07-03T02:57:30.151Z,3.13
2017-07-03T02:58:16.761Z,3.12
2017-07-03T02:59:15.130Z,3.16
2017-07-03T03:00:29.219Z,3.19
2017-07-03T03:01:17.361Z,3.26
2017-07-03T03:03:29.280Z,3.23
2017-07-03T03:04:29.467Z,3.04
2017-07-03T03:05:16.462Z,3.25
2017-07-03T03:06:15.650Z,3.25
2017-07-03T03:07:30.094Z,3.23
2017-07-03T03:08:15.872Z,3.26
2017-07-03T03:09:16.060Z,3.17
2017-07-03T03:11:15.372Z,3.22
2017-07-03T03:13:14.743Z,3.28
2017-07-03T03:14:16.346Z,3.33
2017-07-03T03:15:15.118Z,3.28
2017-07-03T03:16:15.098Z,3.28
2017-07-03T03:18:14.867Z,3.25
2017-07-03T03:19:14.464Z,3.19
2017-07-03T03:20:15.915Z,3.23
2017-07-03T03:21:16.748Z,3.25
2017-07-03T03:22:30.041Z,3.19
2017-07-03T03:23:29.415Z,3.2
2017-07-03T03:24:14.794Z,3.25
2017-07-03T03:25:14.678Z,3.23
2017-07-03T03:27:15.161Z,3.15
2017-07-03T03:28:14.732Z,3.2
2017-07-03T03:29:29.134Z,3.1
2017-07-03T03:30:14.909Z,3.1
2017-07-03T03:31:14.697Z,2.95
2017-07-03T03:33:29.691Z,3.19
2017-07-03T03:34:15.061Z,3.17
2017-07-03T03:35:29.916Z,3.22
2017-07-03T03:36:43.439Z,3.08
2017-07-03T03:37:14.715Z,3.1
2017-07-03T03:38:29.999Z,2.99
2017-07-03T03:39:28.796Z,2.98
2017-07-03T03:41:43.775Z,3.12
2017-07-03T03:42:43.354Z,3.22
2017-07-03T03:43:15.399Z,3.17
2017-07-03T03:45:29.315Z,3.1
2017-07-03T03:46:14.278Z,3.12
2017-07-03T03:47:16.294Z,3.22
2017-07-03T03:48:29.881Z,3.15
2017-07-03T03:49:14.037Z,3.13
2017-07-03T03:50:28.629Z,3.04
2017-07-03T03:51:14.202Z,3.01
2017-07-03T03:52:14.810Z,3.07
2017-07-03T03:53:29.201Z,3.1
2017-07-03T03:56:14.244Z,3.2
2017-07-03T03:58:14.422Z,3.02
2017-07-03T04:02:14.459Z,3.15
2017-07-03T04:03:30.065Z,3.22
2017-07-03T04:05:14.417Z,3.16
2017-07-03T04:07:16.655Z,3.1
2017-07-03T04:09:28.358Z,3.1
2017-07-03T04:10:43.157Z,3.16
2017-07-03T04:11:28.336Z,3.17
2017-07-03T04:12:15.987Z,3.1
2017-07-03T04:14:15.494Z,3.2
2017-07-03T04:15:28.877Z,3.2
2017-07-03T04:17:15.657Z,3.25
2017-07-03T04:19:15.423Z,3.3
2017-07-03T04:20:29.073Z,3.16
2017-07-03T04:21:13.574Z,3.15
2017-07-03T04:22:14.785Z,3.13
2017-07-03T04:23:15.364Z,3.01
2017-07-03T04:25:29.351Z,2.97
2017-07-03T04:26:14.727Z,3.07
2017-07-03T04:27:14.914Z,3.17
2017-07-03T04:29:14.077Z,3.15
2017-07-03T04:30:14.464Z,3.15
2017-07-03T04:32:13.227Z,3.28
2017-07-03T04:33:42.220Z,3.26
2017-07-03T04:35:28.185Z,3.28
2017-07-03T04:36:14.579Z,3.26
2017-07-03T04:37:15.377Z,3.28
2017-07-03T04:38:12.740Z,3.22
2017-07-03T04:39:12.715Z,3.15
2017-07-03T04:40:12.698Z,3.19
2017-07-03T04:41:12.688Z,3.15
2017-07-03T04:42:12.684Z,3.16
2017-07-03T04:43:12.650Z,3.16
2017-07-03T04:44:12.644Z,3.23
2017-07-03T04:45:12.629Z,3.23
2017-07-03T04:46:12.618Z,3.33
2017-07-03T04:47:12.602Z,3.23
2017-07-03T04:48:12.596Z,3.15
2017-07-03T04:49:12.574Z,3.22
2017-07-03T04:50:12.557Z,3.25
2017-07-03T04:51:12.547Z,3.3
2017-07-03T04:52:12.535Z,3.33
2017-07-03T04:53:12.513Z,3.34
2017-07-03T04:54:12.561Z,3.23
2017-07-03T04:55:12.536Z,3.05
2017-07-03T04:56:12.468Z,3.16
2017-07-03T04:57:12.457Z,3.28
2017-07-03T04:58:12.446Z,3.15
2017-07-03T04:59:12.432Z,3.22
2017-07-03T05:00:12.415Z,3.16
2017-07-03T05:01:12.401Z,3.31
2017-07-03T05:02:12.398Z,3.25
2017-07-03T05:03:12.376Z,3.41
2017-07-03T05:04:12.360Z,3.39
2017-07-03T05:05:12.352Z,3.54
2017-07-03T05:06:12.332Z,3.56
2017-07-03T05:07:12.315Z,3.67
2017-07-03T05:08:12.300Z,3.57
2017-07-03T05:09:12.296Z,3.54
2017-07-03T05:10:12.276Z,3.56
2017-07-03T05:11:12.261Z,3.46
2017-07-03T05:12:12.263Z,3.25
2017-07-03T05:13:12.239Z,2.95
2017-07-03T05:14:12.231Z,2.98
2017-07-03T05:15:12.204Z,3.04
2017-07-03T05:16:12.203Z,3.05
2017-07-03T05:17:12.178Z,2.98
2017-07-03T05:18:12.214Z,2.95
2017-07-03T05:19:11.849Z,2.98
2017-07-03T05:20:12.136Z,2.94
2017-07-03T05:21:12.134Z,2.87
2017-07-03T05:22:12.113Z,2.89
2017-07-03T05:23:12.094Z,2.98
2017-07-03T05:24:11.781Z,2.97
2017-07-03T05:25:12.063Z,3.1
2017-07-03T05:26:11.753Z,2.98
2017-07-03T05:27:12.044Z,2.92
2017-07-03T05:28:12.036Z,2.94
2017-07-03T05:29:12.007Z,2.95
2017-07-03T05:30:11.994Z,3.13
2017-07-03T05:31:11.982Z,3.17
2017-07-03T05:32:11.976Z,3.13
2017-07-03T05:33:11.954Z,3.12
2017-07-03T05:34:11.950Z,2.95
2017-07-03T05:35:11.938Z,3.12
2017-07-03T05:36:11.912Z,3.15
2017-07-03T05:37:11.896Z,3.2
2017-07-03T05:38:11.883Z,3.3
2017-07-03T05:39:11.868Z,3.41
2017-07-03T05:40:11.860Z,3.52
2017-07-03T05:41:11.542Z,3.62
2017-07-03T05:42:11.823Z,3.64
2017-07-03T05:43:11.814Z,3.75
2017-07-03T05:44:11.799Z,3.52
2017-07-03T05:45:11.794Z,3.45
2017-07-03T05:46:11.831Z,3.44
2017-07-03T05:47:11.755Z,3.39
2017-07-03T05:48:11.754Z,3.42
2017-07-03T05:49:11.738Z,3.42
2017-07-03T05:50:11.719Z,3.41
2017-07-03T05:51:11.711Z,3.53
2017-07-03T05:52:11.706Z,3.57
2017-07-03T05:53:11.683Z,3.68
2017-07-03T05:54:11.709Z,3.82
2017-07-03T05:55:11.667Z,3.9
2017-07-03T05:56:11.653Z,3.99
2017-07-03T05:57:11.623Z,4.02
2017-07-03T05:58:11.610Z,4.06
2017-07-03T05:59:11.340Z,4.11
2017-07-03T06:00:11.586Z,4.07
2017-07-03T06:01:11.578Z,4.06
2017-07-03T06:02:11.569Z,4.18
2017-07-03T06:03:11.560Z,4.18
2017-07-03T06:04:11.539Z,4.34
2017-07-03T06:05:11.223Z,4.16
2017-07-03T06:06:10.912Z,3.98
2017-07-03T06:07:11.497Z,3.67
2017-07-03T06:08:11.485Z,3.54
2017-07-03T06:09:11.484Z,3.49
2017-07-03T06:10:11.461Z,3.57
2017-07-03T06:11:11.447Z,3.64
2017-07-03T06:12:11.448Z,3.8
2017-07-03T06:13:11.425Z,4.08
2017-07-03T06:14:11.417Z,4.2
2017-07-03T06:15:11.398Z,4.17
2017-07-03T06:16:11.388Z,4.32
2017-07-03T06:17:11.375Z,4.21
2017-07-03T06:18:11.364Z,4.16
2017-07-03T06:19:11.356Z,4.18
2017-07-03T06:20:11.345Z,3.98
2017-07-03T06:21:11.326Z,3.75
2017-07-03T06:22:11.317Z,3.74
2017-07-03T06:23:11.314Z,3.71
2017-07-03T06:24:11.293Z,3.77
2017-07-03T06:25:11.283Z,3.86
2017-07-03T06:26:11.266Z,4
2017-07-03T06:27:11.255Z,4.07
2017-07-03T06:28:11.245Z,4.02
2017-07-03T06:29:11.231Z,4.14
2017-07-03T06:30:11.205Z,4.18
2017-07-03T06:31:11.204Z,4.29
2017-07-03T06:32:11.189Z,4.35
2017-07-03T06:33:11.181Z,4.43
2017-07-03T06:34:11.158Z,4.51
2017-07-03T06:35:11.195Z,4.54
2017-07-03T06:36:10.833Z,4.62
2017-07-03T06:37:11.118Z,4.84
2017-07-03T06:38:11.118Z,4.79
2017-07-03T06:39:11.101Z,4.53
2017-07-03T06:40:11.097Z,4.34
2017-07-03T06:41:11.077Z,4.16
2017-07-03T06:42:11.060Z,4.18
2017-07-03T06:43:11.058Z,4.39
2017-07-03T06:44:11.034Z,4.53
2017-07-03T06:45:11.018Z,4.59
2017-07-03T06:46:11.031Z,4.5
2017-07-03T06:47:10.997Z,4.54
2017-07-03T06:48:10.981Z,4.68
2017-07-03T06:49:10.973Z,4.47
2017-07-03T06:50:10.962Z,4.36
2017-07-03T06:51:10.950Z,4.21
2017-07-03T06:52:10.939Z,4.47
2017-07-03T06:53:10.929Z,4.35
2017-07-03T06:54:10.909Z,4.39
2017-07-03T06:55:10.902Z,4.34
2017-07-03T06:56:10.890Z,4.51
2017-07-03T06:57:10.882Z,4.67
2017-07-03T06:58:10.865Z,4.79
2017-07-03T06:59:10.847Z,4.87
2017-07-03T07:00:10.891Z,4.47
2017-07-03T07:01:10.823Z,4.2
2017-07-03T07:02:10.815Z,4.21
2017-07-03T07:03:10.795Z,4.32
2017-07-03T07:04:10.784Z,4.39
2017-07-03T07:05:10.784Z,4.53
2017-07-03T07:06:10.764Z,4.54
2017-07-03T07:07:10.754Z,4.47
2017-07-03T07:08:10.739Z,4.53
2017-07-03T07:09:10.729Z,4.53
2017-07-03T07:10:10.716Z,4.67
2017-07-03T07:11:10.697Z,4.74
2017-07-03T07:12:10.692Z,4.56
2017-07-03T07:13:10.683Z,4.5
2017-07-03T07:14:10.658Z,4.69
2017-07-03T07:15:10.661Z,4.71
2017-07-03T07:16:10.649Z,4.42
2017-07-03T07:17:10.635Z,4.31
2017-07-03T07:18:10.624Z,4.24
2017-07-03T07:19:10.605Z,4.42
2017-07-03T07:20:10.587Z,4.5
2017-07-03T07:21:10.603Z,4.72
2017-07-03T07:22:10.576Z,4.69
2017-07-03T07:23:10.554Z,4.39
2017-07-03T07:24:10.543Z,4.11
2017-07-03T07:25:10.530Z,4.21
2017-07-03T07:26:10.521Z,4.26
2017-07-03T07:27:10.512Z,4.29
2017-07-03T07:28:10.497Z,4.43
2017-07-03T07:29:10.485Z,4.67
2017-07-03T07:30:10.493Z,4.94
2017-07-03T07:31:10.461Z,5.19
2017-07-03T07:32:10.457Z,4.97
2017-07-03T07:33:10.437Z,5.01
2017-07-03T07:34:10.426Z,5.19
2017-07-03T07:35:10.407Z,5.17
2017-07-03T07:36:10.093Z,5.27
2017-07-03T07:37:10.390Z,5.44
2017-07-03T07:38:10.385Z,5.41
2017-07-03T07:39:10.366Z,5.41
2017-07-03T07:40:10.347Z,5.62
2017-07-03T07:41:10.353Z,5.56
2017-07-03T07:42:10.331Z,5.38
2017-07-03T07:43:10.322Z,5.24
2017-07-03T07:44:10.309Z,5.12
2017-07-03T07:45:10.299Z,5.06
2017-07-03T07:46:09.981Z,4.96
2017-07-03T07:47:10.279Z,4.88
2017-07-03T07:48:10.256Z,5.02
2017-07-03T07:49:10.244Z,4.79
2017-07-03T07:50:10.247Z,4.68
2017-07-03T07:51:10.224Z,4.68
2017-07-03T07:52:10.224Z,4.56
2017-07-03T07:53:10.212Z,4.51
2017-07-03T07:54:10.199Z,4.54
2017-07-03T07:55:10.185Z,4.65
2017-07-03T07:56:10.162Z,4.72
2017-07-03T07:57:10.154Z,4.69
2017-07-03T07:58:10.146Z,4.65
2017-07-03T07:59:10.124Z,4.68
2017-07-03T08:00:10.112Z,4.83
2017-07-03T08:01:10.104Z,4.67
2017-07-03T08:02:10.092Z,4.88
2017-07-03T08:03:10.084Z,4.94
2017-07-03T08:04:10.065Z,4.79
2017-07-03T08:05:10.052Z,4.39
2017-07-03T08:06:10.043Z,4.14
2017-07-03T08:07:09.723Z,4.14
2017-07-03T08:08:10.007Z,4.11
2017-07-03T08:09:09.400Z,4.11
2017-07-03T08:10:10.000Z,3.95
2017-07-03T08:11:09.978Z,3.95
2017-07-03T08:12:09.965Z,3.86
2017-07-03T08:13:09.953Z,3.86
2017-07-03T08:14:09.985Z,3.95
2017-07-03T08:15:09.930Z,3.92
2017-07-03T08:16:09.917Z,3.86
2017-07-03T08:17:09.905Z,3.99
2017-07-03T08:18:09.885Z,3.99
2017-07-03T08:19:09.875Z,4.13
2017-07-03T08:20:09.862Z,4.35
2017-07-03T08:21:09.843Z,4.39
2017-07-03T08:22:09.829Z,4.21
2017-07-03T08:23:09.850Z,4.1
2017-07-03T08:24:09.523Z,3.95
2017-07-03T08:25:09.798Z,3.78
2017-07-03T08:26:09.790Z,3.77
2017-07-03T08:27:09.761Z,3.68
2017-07-03T08:28:09.755Z,3.44
2017-07-03T08:29:09.742Z,3.25
2017-07-03T08:30:09.735Z,3.44
2017-07-03T08:31:09.725Z,3.82
2017-07-03T08:32:09.702Z,3.9
2017-07-03T08:33:09.711Z,3.95
2017-07-03T08:34:09.680Z,4.08
2017-07-03T08:35:09.656Z,3.82
2017-07-03T08:36:09.657Z,3.75
2017-07-03T08:37:09.686Z,3.6
2017-07-03T08:38:09.622Z,3.86
2017-07-03T08:39:09.608Z,3.99
2017-07-03T08:40:09.282Z,3.95
2017-07-03T08:41:09.576Z,3.86
2017-07-03T08:42:09.569Z,3.8
2017-07-03T08:43:09.541Z,3.84
2017-07-03T08:44:09.534Z,3.7
2017-07-03T08:45:09.522Z,3.71
2017-07-03T08:46:09.516Z,3.71
2017-07-03T08:47:09.489Z,3.75
2017-07-03T08:48:09.489Z,3.84
2017-07-03T08:49:09.468Z,3.95
2017-07-03T08:50:09.462Z,3.98
2017-07-03T08:51:09.435Z,4.04
2017-07-03T08:52:09.425Z,3.81
2017-07-03T08:53:09.407Z,3.71
2017-07-03T08:54:09.410Z,3.68
2017-07-03T08:55:09.081Z,3.98
2017-07-03T08:56:09.366Z,4.13
2017-07-03T08:57:09.353Z,4.08
2017-07-03T08:58:09.340Z,4.11
2017-07-03T08:59:09.335Z,3.86
2017-07-03T09:00:09.322Z,4.2
2017-07-03T09:01:09.305Z,4.38
2017-07-03T09:02:09.299Z,4.28
2017-07-03T09:03:09.340Z,4.32
2017-07-03T09:04:09.273Z,4.29
2017-07-03T09:05:09.247Z,4.2
2017-07-03T09:06:09.247Z,4.31
2017-07-03T09:07:09.224Z,4.35
2017-07-03T09:08:09.209Z,4.47
2017-07-03T09:09:09.194Z,4.49
2017-07-03T09:10:08.876Z,4.42
2017-07-03T09:11:09.163Z,4.35
2017-07-03T09:12:09.150Z,4.5
2017-07-03T09:13:09.138Z,4.83
2017-07-03T09:14:09.133Z,4.72
2017-07-03T09:15:09.116Z,4.59
2017-07-03T09:16:09.105Z,4.53
2017-07-03T09:17:09.087Z,4.64
2017-07-03T09:18:09.075Z,4.61
2017-07-03T09:19:09.067Z,4.91
2017-07-03T09:20:09.058Z,4.96
2017-07-03T09:21:08.738Z,5.01
2017-07-03T09:22:09.022Z,5.24
2017-07-03T09:23:09.010Z,5.2
2017-07-03T09:24:08.995Z,4.72
2017-07-03T09:25:08.988Z,4.83
2017-07-03T09:26:08.987Z,4.72
2017-07-03T09:27:08.966Z,4.87
2017-07-03T09:28:08.962Z,5.29
2017-07-03T09:29:08.946Z,5.12
2017-07-03T09:30:08.933Z,5.06
2017-07-03T09:31:08.911Z,5.2
2017-07-03T09:32:08.906Z,5.33
2017-07-03T09:33:08.893Z,5.58
2017-07-03T09:34:08.585Z,5.41
2017-07-03T09:35:08.868Z,5.48
2017-07-03T09:36:08.564Z,5.47
2017-07-03T09:37:08.858Z,5.14
2017-07-03T09:38:08.851Z,4.79
2017-07-03T09:39:08.817Z,4.57
2017-07-03T09:40:08.807Z,4.35
2017-07-03T09:41:08.802Z,4.67
2017-07-03T09:42:08.780Z,4.79
2017-07-03T09:43:08.783Z,4.71
2017-07-03T09:44:08.777Z,4.79
2017-07-03T09:45:08.750Z,4.47
2017-07-03T09:46:08.735Z,4.47
2017-07-03T09:47:08.420Z,4.87
2017-07-03T09:48:08.712Z,4.75
2017-07-03T09:49:08.699Z,4.86
2017-07-03T09:50:08.681Z,4.53
2017-07-03T09:51:08.666Z,4.2
2017-07-03T09:52:08.655Z,4.1
2017-07-03T09:53:08.644Z,4.1
2017-07-03T09:54:08.632Z,4.16
2017-07-03T09:55:08.622Z,4.43
2017-07-03T09:56:08.611Z,4.36
2017-07-03T09:57:08.589Z,4.26
2017-07-03T09:58:08.582Z,4.17
2017-07-03T09:59:08.568Z,4.13
2017-07-03T10:00:08.564Z,3.92
2017-07-03T10:01:08.534Z,4.07
2017-07-03T10:02:08.527Z,4.1
2017-07-03T10:03:08.505Z,4.47
2017-07-03T10:04:08.499Z,4.16
2017-07-03T10:05:08.479Z,4.21
2017-07-03T10:06:08.472Z,4.28
2017-07-03T10:07:08.460Z,4.04
2017-07-03T10:08:08.435Z,3.92
2017-07-03T10:09:08.430Z,3.92
2017-07-03T10:10:08.117Z,3.82
2017-07-03T10:11:08.399Z,3.98
2017-07-03T10:12:08.383Z,3.95
2017-07-03T10:13:08.378Z,3.99
2017-07-03T10:14:08.358Z,4.13
2017-07-03T10:15:08.350Z,4.18
2017-07-03T10:16:08.335Z,4.04
2017-07-03T10:17:08.025Z,4.32
2017-07-03T10:18:08.322Z,4.44
2017-07-03T10:19:08.296Z,4.72
2017-07-03T10:20:08.279Z,4.84
2017-07-03T10:21:08.274Z,5.04
2017-07-03T10:22:08.243Z,4.94
2017-07-03T10:23:08.240Z,5.04
2017-07-03T10:24:08.228Z,4.97
2017-07-03T10:25:08.219Z,4.79
2017-07-03T10:26:08.194Z,4.8
2017-07-03T10:27:07.874Z,4.57
2017-07-03T10:28:08.173Z,4.72
2017-07-03T10:29:08.160Z,4.69
2017-07-03T10:30:08.143Z,4.65
2017-07-03T10:31:08.134Z,4.61
2017-07-03T10:32:08.125Z,4.65
2017-07-03T10:33:08.105Z,4.67
2017-07-03T10:34:08.103Z,4.69
2017-07-03T10:35:08.085Z,4.67
2017-07-03T10:36:07.765Z,4.75
2017-07-03T10:37:08.058Z,5.01
2017-07-03T10:38:08.051Z,5.22
2017-07-03T10:39:07.732Z,5.04
2017-07-03T10:40:07.719Z,4.79
2017-07-03T10:41:08.006Z,4.97
2017-07-03T10:42:07.996Z,4.8
2017-07-03T10:43:07.980Z,4.64
2017-07-03T10:44:07.971Z,4.61
2017-07-03T10:45:07.955Z,4.31
2017-07-03T10:46:07.951Z,4.28
2017-07-03T10:47:07.981Z,4.18
2017-07-03T10:48:07.612Z,4.25
2017-07-03T10:49:07.916Z,4.28
2017-07-03T10:50:07.602Z,4.47
2017-07-03T10:51:07.879Z,4.56
2017-07-03T10:52:07.866Z,4.44
2017-07-03T10:53:07.859Z,4.54
2017-07-03T10:54:07.531Z,4.25
2017-07-03T10:55:07.827Z,4.44
2017-07-03T10:56:07.820Z,4.36
2017-07-03T10:57:07.806Z,4.14
2017-07-03T10:58:07.799Z,3.96
2017-07-03T10:59:07.778Z,3.98
2017-07-03T11:00:07.456Z,4.18
2017-07-03T11:01:07.752Z,4.06
2017-07-03T11:02:07.742Z,4.25
2017-07-03T11:03:07.719Z,4.1
2017-07-03T11:04:07.706Z,4.42
2017-07-03T11:05:07.689Z,4.59
2017-07-03T11:06:07.674Z,4.5
2017-07-03T11:07:07.658Z,4.59
2017-07-03T11:08:07.648Z,4.84
2017-07-03T11:09:07.636Z,4.51
2017-07-03T11:10:07.627Z,4.83
2017-07-03T11:11:07.601Z,4.99
2017-07-03T11:12:07.589Z,4.99
2017-07-03T11:13:07.576Z,4.84
2017-07-03T11:14:07.262Z,4.9
2017-07-03T11:15:07.251Z,5.08
2017-07-03T11:16:07.536Z,5.44
2017-07-03T11:17:07.528Z,5.2
2017-07-03T11:18:07.515Z,5.41
2017-07-03T11:19:07.195Z,5.49
2017-07-03T11:20:07.495Z,5.77
2017-07-03T11:21:07.177Z,5.75
2017-07-03T11:22:07.466Z,5.35
2017-07-03T11:23:07.148Z,5.55
2017-07-03T11:24:07.435Z,5.78
2017-07-03T11:25:06.817Z,5.7
2017-07-03T11:26:07.407Z,5.78
2017-07-03T11:27:07.395Z,6.39
2017-07-03T11:28:07.386Z,7.11
2017-07-03T11:29:07.369Z,6.81
2017-07-03T11:30:07.050Z,6.63
2017-07-03T11:31:07.343Z,6.25
2017-07-03T11:32:07.324Z,6.3
2017-07-03T11:33:07.317Z,6.48
2017-07-03T11:34:07.305Z,6.35
2017-07-03T11:35:06.992Z,6.32
2017-07-03T11:36:07.286Z,6.08
2017-07-03T11:37:06.966Z,6.11
2017-07-03T11:38:06.954Z,6.21
2017-07-03T11:39:07.246Z,6.36
2017-07-03T11:40:07.228Z,6.45
2017-07-03T11:41:07.219Z,6.51
2017-07-03T11:42:07.205Z,6.5
2017-07-03T11:43:07.187Z,6.76
2017-07-03T11:44:07.181Z,7.33
2017-07-03T11:45:07.176Z,7.41
2017-07-03T11:46:07.151Z,7.54
2017-07-03T11:47:07.147Z,8.04
2017-07-03T11:48:07.133Z,8.57
2017-07-03T11:49:07.119Z,9.06
2017-07-03T11:50:07.114Z,8.91
2017-07-03T11:51:07.109Z,8.68
2017-07-03T11:52:07.089Z,7.82
2017-07-03T11:53:07.076Z,7.26
2017-07-03T11:54:07.067Z,6.82
2017-07-03T11:55:07.062Z,6.64
2017-07-03T11:56:07.050Z,6.28
2017-07-03T11:57:07.031Z,6.24
2017-07-03T11:58:07.020Z,6.58
2017-07-03T11:59:07.009Z,6.32
2017-07-03T12:00:06.749Z,6.21
2017-07-03T12:01:06.986Z,5.92
2017-07-03T12:02:06.990Z,5.63
2017-07-03T12:03:06.956Z,5.6
2017-07-03T12:04:06.962Z,5.49
2017-07-03T12:05:06.929Z,5.27
2017-07-03T12:06:06.934Z,5.23
2017-07-03T12:07:06.918Z,5.47
2017-07-03T12:08:06.909Z,5.83
2017-07-03T12:09:06.887Z,5.95
2017-07-03T12:10:06.871Z,5.96
2017-07-03T12:11:06.871Z,6.43
2017-07-03T12:12:06.858Z,6.94
2017-07-03T12:13:06.844Z,7.01
2017-07-03T12:14:06.834Z,7.37
2017-07-03T12:15:06.816Z,7.74
2017-07-03T12:16:06.809Z,7.89
2017-07-03T12:17:06.797Z,8.24
2017-07-03T12:18:06.778Z,8.13
2017-07-03T12:19:06.772Z,7.91
2017-07-03T12:20:06.755Z,7.6
2017-07-03T12:21:06.752Z,7.47
2017-07-03T12:22:06.734Z,7.15
2017-07-03T12:23:06.726Z,7.44
2017-07-03T12:24:06.708Z,7.5
2017-07-03T12:25:06.699Z,7.27
2017-07-03T12:26:06.680Z,6.72
2017-07-03T12:27:06.672Z,7.04
2017-07-03T12:28:06.669Z,7.15
2017-07-03T12:29:06.652Z,7.09
2017-07-03T12:30:06.646Z,6.99
2017-07-03T12:31:06.325Z,6.93
2017-07-03T12:32:06.621Z,6.86
2017-07-03T12:33:06.602Z,6.76
2017-07-03T12:34:06.586Z,6.72
2017-07-03T12:35:06.575Z,6.76
2017-07-03T12:36:06.568Z,6.6
2017-07-03T12:37:06.559Z,6.45
2017-07-03T12:38:06.547Z,6.39
2017-07-03T12:39:06.539Z,6.63
2017-07-03T12:40:06.527Z,6.5
2017-07-03T12:41:06.513Z,6.3
2017-07-03T12:42:06.494Z,6.02
2017-07-03T12:43:06.186Z,6.2
2017-07-03T12:44:06.483Z,6.1
2017-07-03T12:45:06.166Z,5.84
2017-07-03T12:46:06.453Z,6.06
2017-07-03T12:47:06.445Z,6.13
2017-07-03T12:48:06.432Z,5.95
2017-07-03T12:49:06.418Z,5.87
2017-07-03T12:50:06.450Z,5.98
2017-07-03T12:51:06.406Z,6.11
2017-07-03T12:52:06.386Z,5.88
2017-07-03T12:53:06.376Z,5.81
2017-07-03T12:54:06.363Z,5.96
2017-07-03T12:55:06.341Z,5.96
2017-07-03T12:56:06.337Z,6.24
2017-07-03T12:57:06.333Z,6.05
2017-07-03T12:58:06.311Z,6.24
2017-07-03T12:59:06.309Z,6.93
2017-07-03T13:00:06.286Z,6.9
2017-07-03T13:01:06.289Z,7.07
2017-07-03T13:02:06.266Z,6.99
2017-07-03T13:03:06.248Z,6.57
2017-07-03T13:04:05.938Z,7.23
2017-07-03T13:05:06.235Z,7.12
2017-07-03T13:06:06.221Z,7.99
2017-07-03T13:07:06.206Z,8.57
2017-07-03T13:08:06.195Z,8.5
2017-07-03T13:09:06.184Z,8.14
2017-07-03T13:10:06.174Z,7.76
2017-07-03T13:11:06.162Z,7.74
2017-07-03T13:12:06.173Z,7.76
2017-07-03T13:13:06.146Z,7.74
2017-07-03T13:14:06.132Z,8.12
2017-07-03T13:15:06.111Z,7.95
2017-07-03T13:16:06.102Z,8.27
2017-07-03T13:17:06.103Z,7.73
2017-07-03T13:18:06.092Z,7.52
2017-07-03T13:19:06.076Z,7.32
2017-07-03T13:20:06.068Z,7.23
2017-07-03T13:21:06.063Z,7
2017-07-03T13:22:06.039Z,6.61
2017-07-03T13:23:06.027Z,6.64
2017-07-03T13:24:06.020Z,6.9
2017-07-03T13:25:05.696Z,6.86
2017-07-03T13:26:05.994Z,7.09
2017-07-03T13:27:06.022Z,7.3
2017-07-03T13:28:06.040Z,7.01
2017-07-03T13:29:05.653Z,7.44
2017-07-03T13:30:05.948Z,7.58
2017-07-03T13:31:05.931Z,8.13
2017-07-03T13:32:05.319Z,7.74
2017-07-03T13:33:05.917Z,7.73
2017-07-03T13:34:05.903Z,7.77
2017-07-03T13:35:05.595Z,7.74
2017-07-03T13:36:05.881Z,8.09
2017-07-03T13:37:05.564Z,7.67
2017-07-03T13:38:05.857Z,7.63
2017-07-03T13:39:05.855Z,7.69
2017-07-03T13:40:05.839Z,7.48
2017-07-03T13:41:05.825Z,6.5
2017-07-03T13:42:05.806Z,6.33
2017-07-03T13:43:05.801Z,6.61
2017-07-03T13:44:05.799Z,6.89
2017-07-03T13:45:05.781Z,7.41
2017-07-03T13:46:05.778Z,7.23
2017-07-03T13:47:05.760Z,7.05
2017-07-03T13:48:05.755Z,6.81
2017-07-03T13:49:05.737Z,6.42
2017-07-03T13:50:05.734Z,6.3
2017-07-03T13:51:05.410Z,6.51
2017-07-03T13:52:05.703Z,6.83
2017-07-03T13:53:05.690Z,6.86
2017-07-03T13:54:05.681Z,7.08
2017-07-03T13:55:05.363Z,6.81
2017-07-03T13:56:05.652Z,6.38
2017-07-03T13:57:05.341Z,6.03
2017-07-03T13:58:05.643Z,6.02
2017-07-03T13:59:05.630Z,6.02
2017-07-03T14:00:05.303Z,6.11
2017-07-03T14:01:05.595Z,6.11
2017-07-03T14:02:05.589Z,6.02
2017-07-03T14:03:05.580Z,6.25
2017-07-03T14:04:05.261Z,6.24
2017-07-03T14:05:05.550Z,6.02
2017-07-03T14:06:05.536Z,6.14
2017-07-03T14:07:05.524Z,6.16
2017-07-03T14:08:05.511Z,6.2
2017-07-03T14:09:05.496Z,6.02
2017-07-03T14:10:05.502Z,5.73
2017-07-03T14:11:05.479Z,5.88
2017-07-03T14:12:05.469Z,6.17
2017-07-03T14:13:05.154Z,6.17
2017-07-03T14:14:05.441Z,6.17
2017-07-03T14:15:05.418Z,5.81
2017-07-03T14:16:05.422Z,5.63
2017-07-03T14:17:05.395Z,5.35
2017-07-03T14:18:05.388Z,5.35
2017-07-03T14:19:05.375Z,5.15
2017-07-03T14:20:05.067Z,4.97
2017-07-03T14:21:05.348Z,5.06
2017-07-03T14:22:05.347Z,5.42
2017-07-03T14:23:05.328Z,5.51
2017-07-03T14:24:05.304Z,5.38
2017-07-03T14:25:05.301Z,5.4
2017-07-03T14:26:05.288Z,5.45
2017-07-03T14:27:05.279Z,5.52
2017-07-03T14:28:05.266Z,5.84
2017-07-03T14:29:05.246Z,6.27
2017-07-03T14:30:05.237Z,6.55
2017-07-03T14:31:05.227Z,5.98